createdAt,value
2022-08-19T00:01:31.380Z,100825.91
2022-08-19T00:04:03.521Z,100828.38
2022-08-19T00:06:30.942Z,100824.31
2022-08-19T00:08:58.676Z,100832.94
2022-08-19T00:11:27.019Z,100830.59
2022-08-19T00:13:54.446Z,100828.38
2022-08-19T00:16:26.125Z,100826.53
2022-08-19T00:18:54.622Z,100835.97
2022-08-19T00:21:21.489Z,100832.25
2022-08-19T00:23:48.714Z,100832.25
2022-08-19T00:26:15.486Z,100832.44
2022-08-19T00:28:42.295Z,100831.59
2022-08-19T00:31:09.983Z,100829.34
2022-08-19T00:33:36.987Z,100824.56
2022-08-19T00:36:07.388Z,100818.66
2022-08-19T00:38:38.029Z,100829.63
2022-08-19T00:41:06.816Z,100816.13
2022-08-19T00:43:33.787Z,100815.44
2022-08-19T00:46:00.889Z,100814.81
2022-08-19T00:48:27.578Z,100820.84
2022-08-19T00:50:55.345Z,100807.13
2022-08-19T00:53:24.528Z,100815.38
2022-08-19T00:55:53.101Z,100817.38
2022-08-19T00:58:21.361Z,100820.41
2022-08-19T01:00:49.157Z,100811.53
2022-08-19T01:03:19.195Z,100811.22
2022-08-19T01:05:47.233Z,100814.22
2022-08-19T01:08:16.385Z,100818.94
2022-08-19T01:10:47.826Z,100816.56
2022-08-19T01:13:20.634Z,100818.09
2022-08-19T01:15:51.329Z,100816.56
2022-08-19T01:18:19.630Z,100809.63
2022-08-19T01:20:46.512Z,100818.59
2022-08-19T01:23:13.758Z,100818.41
2022-08-19T01:25:45.808Z,100824.97
2022-08-19T01:28:40.189Z,100824.13
2022-08-19T01:31:26.889Z,100815.50
2022-08-19T01:33:55.830Z,100816.81
2022-08-19T01:36:38.985Z,100822.53
2022-08-19T01:39:13.408Z,100807.66
2022-08-19T01:41:40.410Z,100805.09
2022-08-19T01:44:18.322Z,100807.59
2022-08-19T01:46:46.967Z,100812.28
2022-08-19T01:49:13.637Z,100818.00
2022-08-19T01:51:40.627Z,100817.00
2022-08-19T01:54:11.665Z,100816.09
2022-08-19T01:56:39.354Z,100815.38
2022-08-19T01:59:11.608Z,100813.84
2022-08-19T02:01:38.372Z,100816.00
2022-08-19T02:04:06.145Z,100816.00
2022-08-19T02:06:34.193Z,100815.16
2022-08-19T02:09:01.185Z,100816.00
2022-08-19T02:11:36.425Z,100809.75
2022-08-19T02:14:06.912Z,100812.09
2022-08-19T02:16:34.183Z,100813.16
2022-08-19T02:19:03.687Z,100805.94
2022-08-19T02:21:31.445Z,100802.38
2022-08-19T02:23:58.692Z,100810.81
2022-08-19T02:26:27.506Z,100816.81
2022-08-19T02:28:55.612Z,100816.13
2022-08-19T02:31:25.651Z,100822.22
2022-08-19T02:33:56.801Z,100824.31
2022-08-19T02:36:25.504Z,100828.69
2022-08-19T02:38:54.844Z,100828.00
2022-08-19T02:41:34.090Z,100820.75
2022-08-19T02:44:26.655Z,100819.06
2022-08-19T02:46:51.680Z,100824.44
2022-08-19T02:49:19.674Z,100827.69
2022-08-19T02:51:47.050Z,100829.59
2022-08-19T02:54:15.552Z,100828.84
2022-08-19T02:56:44.116Z,100832.38
2022-08-19T02:59:13.044Z,100832.91
2022-08-19T03:01:42.440Z,100839.31
2022-08-19T03:04:13.665Z,100833.06
2022-08-19T03:06:42.345Z,100832.06
2022-08-19T03:09:09.640Z,100829.84
2022-08-19T03:11:36.473Z,100828.28
2022-08-19T03:14:04.742Z,100835.69
2022-08-19T03:16:34.199Z,100828.03
2022-08-19T03:19:01.942Z,100828.75
2022-08-19T03:21:31.462Z,100821.50
2022-08-19T03:24:00.883Z,100820.38
2022-08-19T03:26:28.137Z,100825.16
2022-08-19T03:28:58.380Z,100817.34
2022-08-19T03:31:43.583Z,100822.59
2022-08-19T03:34:15.873Z,100822.97
2022-08-19T03:36:42.737Z,100832.72
2022-08-19T03:39:11.272Z,100828.88
2022-08-19T03:41:44.992Z,100823.50
2022-08-19T03:44:18.041Z,100823.09
2022-08-19T03:46:46.509Z,100831.44
2022-08-19T03:49:14.389Z,100830.41
2022-08-19T03:51:42.562Z,100832.28
2022-08-19T03:54:11.703Z,100827.66
2022-08-19T03:56:40.369Z,100825.25
2022-08-19T03:59:11.859Z,100827.69
2022-08-19T04:01:38.588Z,100823.34
2022-08-19T04:04:05.481Z,100822.34
2022-08-19T04:06:39.548Z,100819.94
2022-08-19T04:09:09.555Z,100826.13
2022-08-19T04:11:44.470Z,100830.34
2022-08-19T04:14:23.763Z,100837.50
2022-08-19T04:16:51.339Z,100834.97
2022-08-19T04:19:19.139Z,100834.13
2022-08-19T04:21:51.078Z,100824.25
2022-08-19T04:24:18.757Z,100825.72
2022-08-19T04:26:45.929Z,100826.19
2022-08-19T04:29:15.976Z,100828.72
2022-08-19T04:31:44.479Z,100827.03
2022-08-19T04:34:13.013Z,100818.00
2022-08-19T04:36:42.359Z,100815.16
2022-08-19T04:39:12.224Z,100815.00
2022-08-19T04:41:57.464Z,100825.22
2022-08-19T04:44:24.195Z,100821.41
2022-08-19T04:46:52.064Z,100831.19
2022-08-19T04:49:26.545Z,100837.94
2022-08-19T04:51:55.329Z,100843.75
2022-08-19T04:54:37.796Z,100843.75
2022-08-19T04:57:08.182Z,100842.34
2022-08-19T04:59:35.665Z,100848.72
2022-08-19T05:02:02.510Z,100850.72
2022-08-19T05:04:33.065Z,100855.13
2022-08-19T05:07:02.179Z,100866.75
2022-08-19T05:09:32.897Z,100865.03
2022-08-19T05:12:16.879Z,100878.09
2022-08-19T05:14:44.378Z,100873.72
2022-08-19T05:17:27.226Z,100876.59
2022-08-19T05:20:14.583Z,100883.97
2022-08-19T05:22:42.309Z,100880.09
2022-08-19T05:25:13.822Z,100896.25
2022-08-19T05:27:42.032Z,100884.81
2022-08-19T05:30:09.634Z,100879.53
2022-08-19T05:32:36.370Z,100895.44
2022-08-19T05:35:03.425Z,100889.47
2022-08-19T05:37:30.184Z,100881.53
2022-08-19T05:39:56.966Z,100884.34
2022-08-19T05:42:24.250Z,100885.06
2022-08-19T05:44:51.854Z,100885.47
2022-08-19T05:47:20.811Z,100884.78
2022-08-19T05:49:48.280Z,100886.59
2022-08-19T05:52:16.990Z,100887.31
2022-08-19T05:54:51.296Z,100894.22
2022-08-19T05:57:19.363Z,100897.38
2022-08-19T05:59:53.065Z,100899.78
2022-08-19T06:02:26.046Z,100892.97
2022-08-19T06:04:52.815Z,100882.19
2022-08-19T06:07:20.576Z,100883.03
2022-08-19T06:09:59.759Z,100884.66
2022-08-19T06:12:29.764Z,100896.56
2022-08-19T06:15:01.229Z,100884.38
2022-08-19T06:17:31.491Z,100881.53
2022-08-19T06:19:59.778Z,100889.19
2022-08-19T06:22:26.974Z,100894.53
2022-08-19T06:24:55.178Z,100883.22
2022-08-19T06:27:22.500Z,100881.38
2022-08-19T06:29:49.218Z,100886.31
2022-08-19T06:32:17.447Z,100890.00
2022-08-19T06:34:44.217Z,100890.72
2022-08-19T06:37:12.482Z,100889.28
2022-08-19T06:39:40.858Z,100890.41
2022-08-19T06:42:10.964Z,100889.09
2022-08-19T06:44:42.601Z,100881.72
2022-08-19T06:47:14.685Z,100877.63
2022-08-19T06:49:42.709Z,100884.41
2022-08-19T06:52:13.841Z,100892.25
2022-08-19T06:54:55.557Z,100889.53
2022-08-19T06:57:24.411Z,100898.47
2022-08-19T06:59:51.293Z,100889.25
2022-08-19T07:05:06.689Z,100905.78
2022-08-19T07:07:33.716Z,100909.59
2022-08-19T07:10:01.968Z,100908.13
2022-08-19T07:12:38.033Z,100911.69
2022-08-19T07:15:09.848Z,100909.38
2022-08-19T07:17:38.426Z,100905.22
2022-08-19T07:20:09.642Z,100901.69
2022-08-19T07:22:38.603Z,100912.72
2022-08-19T07:25:07.385Z,100907.19
2022-08-19T07:27:35.047Z,100912.13
2022-08-19T07:30:02.341Z,100925.47
2022-08-19T07:32:29.034Z,100923.75
2022-08-19T07:34:57.017Z,100924.94
2022-08-19T07:37:32.542Z,100933.56
2022-08-19T07:40:00.301Z,100933.50
2022-08-19T07:42:27.780Z,100929.41
2022-08-19T07:44:54.449Z,100936.41
2022-08-19T07:47:49.838Z,100932.25
2022-08-19T07:50:10.106Z,100939.34
2022-08-19T07:52:39.651Z,100947.50
2022-08-19T07:55:40.674Z,100942.34
2022-08-19T07:57:56.110Z,100945.16
2022-08-19T08:00:24.308Z,100944.38
2022-08-19T08:02:52.184Z,100950.31
2022-08-19T08:05:43.432Z,100956.66
2022-08-19T08:08:29.883Z,100959.28
2022-08-19T08:10:57.473Z,100961.59
2022-08-19T08:13:25.362Z,100967.44
2022-08-19T08:15:55.925Z,100972.53
2022-08-19T08:18:27.642Z,100971.22
2022-08-19T08:20:57.868Z,100967.34
2022-08-19T08:23:28.014Z,100959.72
2022-08-19T08:25:58.253Z,100963.97
2022-08-19T08:28:26.169Z,100968.25
2022-08-19T08:30:56.678Z,100975.00
2022-08-19T08:33:32.769Z,100979.69
2022-08-19T08:36:12.011Z,100984.16
2022-08-19T08:38:40.516Z,100984.84
2022-08-19T08:41:34.502Z,100977.19
2022-08-19T08:44:02.170Z,100980.94
2022-08-19T08:46:41.181Z,100982.19
2022-08-19T08:49:09.967Z,100985.75
2022-08-19T08:51:59.329Z,100971.31
2022-08-19T08:54:34.760Z,100964.41
2022-08-19T08:57:05.754Z,100970.81
2022-08-19T08:59:36.785Z,100975.78
2022-08-19T09:02:03.787Z,100973.97
2022-08-19T09:04:30.598Z,100979.44
2022-08-19T09:07:00.388Z,100975.91
2022-08-19T09:09:42.163Z,100983.53
2022-08-19T09:12:27.026Z,100982.69
2022-08-19T09:15:05.330Z,100970.72
2022-08-19T09:17:34.552Z,100964.81
2022-08-19T09:20:32.145Z,100970.91
2022-08-19T09:22:59.654Z,100977.72
2022-08-19T09:25:29.485Z,100973.88
2022-08-19T09:28:03.063Z,100980.47
2022-08-19T09:30:36.165Z,100976.41
2022-08-19T09:33:02.833Z,100977.97
2022-08-19T09:35:30.995Z,100972.19
2022-08-19T09:37:59.473Z,100980.50
2022-08-19T09:40:31.916Z,100976.44
2022-08-19T09:43:11.455Z,100975.28
2022-08-19T09:45:40.413Z,100978.78
2022-08-19T09:48:07.344Z,100982.88
2022-08-19T09:50:39.506Z,100962.91
2022-08-19T09:53:19.397Z,100967.94
2022-08-19T09:55:46.149Z,100978.44
2022-08-19T09:58:13.021Z,100981.97
2022-08-19T10:00:39.887Z,100978.59
2022-08-19T10:03:07.113Z,100974.72
2022-08-19T10:05:50.477Z,100977.28
2022-08-19T10:08:40.963Z,100973.03
2022-08-19T10:11:28.449Z,100977.44
2022-08-19T10:14:06.958Z,100976.44
2022-08-19T10:16:33.927Z,100983.69
2022-08-19T10:19:10.458Z,100966.94
2022-08-19T10:21:37.346Z,100968.78
2022-08-19T10:24:07.324Z,100964.84
2022-08-19T10:26:38.228Z,100963.16
2022-08-19T10:29:06.150Z,100958.84
2022-08-19T10:32:00.737Z,100966.50
2022-08-19T10:34:27.845Z,100956.34
2022-08-19T10:37:00.493Z,100954.31
2022-08-19T10:39:31.285Z,100952.28
2022-08-19T10:41:58.948Z,100947.84
2022-08-19T10:44:32.182Z,100941.25
2022-08-19T10:47:00.079Z,100948.28
2022-08-19T10:49:26.847Z,100953.28
2022-08-19T10:52:18.535Z,100960.72
2022-08-19T10:55:08.627Z,100953.56
2022-08-19T10:57:59.427Z,100949.56
2022-08-19T11:00:24.337Z,100948.56
2022-08-19T11:02:51.759Z,100949.84
2022-08-19T11:05:19.217Z,100946.72
2022-08-19T11:07:46.149Z,100949.38
2022-08-19T11:10:19.470Z,100950.19
2022-08-19T11:12:48.208Z,100939.63
2022-08-19T11:15:15.357Z,100954.50
2022-08-19T11:17:42.632Z,100952.25
2022-08-19T11:20:10.108Z,100944.03
2022-08-19T11:22:41.675Z,100948.38
2022-08-19T11:25:12.218Z,100952.25
2022-08-19T11:27:43.961Z,100950.47
2022-08-19T11:30:13.011Z,100954.94
2022-08-19T11:32:47.127Z,100940.88
2022-08-19T11:35:15.536Z,100935.31
2022-08-19T11:37:42.209Z,100946.22
2022-08-19T11:40:09.957Z,100954.91
2022-08-19T11:42:55.320Z,100940.06
2022-08-19T11:45:22.567Z,100933.59
2022-08-19T11:47:49.519Z,100945.69
2022-08-19T11:50:17.474Z,100936.38
2022-08-19T11:52:45.710Z,100940.31
2022-08-19T11:55:14.234Z,100932.00
2022-08-19T11:57:42.227Z,100934.53
2022-08-19T12:00:10.809Z,100931.50
2022-08-19T12:02:37.465Z,100925.78
2022-08-19T12:05:06.937Z,100933.59
2022-08-19T12:07:35.819Z,100929.84
2022-08-19T12:10:02.464Z,100927.78
2022-08-19T12:12:30.353Z,100923.81
2022-08-19T12:14:59.332Z,100925.34
2022-08-19T12:17:27.437Z,100925.34
2022-08-19T12:19:54.671Z,100922.81
2022-08-19T12:22:21.815Z,100920.84
2022-08-19T12:24:51.206Z,100922.50
2022-08-19T12:27:32.037Z,100908.25
2022-08-19T12:30:07.270Z,100903.22
2022-08-19T12:32:34.883Z,100917.09
2022-08-19T12:35:02.212Z,100908.16
2022-08-19T12:37:28.952Z,100925.06
2022-08-19T12:39:55.641Z,100910.03
2022-08-19T12:42:23.769Z,100916.44
2022-08-19T12:44:52.925Z,100899.06
2022-08-19T12:47:19.742Z,100907.94
2022-08-19T12:49:53.094Z,100917.31
2022-08-19T12:52:23.247Z,100907.38
2022-08-19T12:54:54.163Z,100905.41
2022-08-19T12:57:24.380Z,100911.97
2022-08-19T12:59:59.049Z,100924.72
2022-08-19T13:02:25.700Z,100909.38
2022-08-19T13:04:52.334Z,100907.78
2022-08-19T13:07:19.027Z,100901.34
2022-08-19T13:09:45.811Z,100905.03
2022-08-19T13:12:14.120Z,100904.66
2022-08-19T13:14:41.533Z,100919.97
2022-08-19T13:17:09.371Z,100895.84
2022-08-19T13:19:37.811Z,100909.53
2022-08-19T13:22:04.532Z,100893.41
2022-08-19T13:24:41.969Z,100893.22
2022-08-19T13:27:11.991Z,100902.19
2022-08-19T13:29:59.843Z,100892.16
2022-08-19T13:32:44.998Z,100895.84
2022-08-19T13:35:16.235Z,100883.75
2022-08-19T13:37:43.867Z,100875.72
2022-08-19T13:40:16.679Z,100871.81
2022-08-19T13:42:44.869Z,100876.06
2022-08-19T13:45:12.714Z,100869.16
2022-08-19T13:47:45.957Z,100866.63
2022-08-19T13:50:14.544Z,100871.97
2022-08-19T13:52:41.696Z,100873.34
2022-08-19T13:55:09.666Z,100870.28
2022-08-19T13:57:39.531Z,100876.59
2022-08-19T14:00:13.547Z,100867.41
2022-08-19T14:02:41.214Z,100858.41
2022-08-19T14:05:10.482Z,100854.22
2022-08-19T14:07:37.421Z,100860.00
2022-08-19T14:10:05.982Z,100869.81
2022-08-19T14:12:33.260Z,100859.69
2022-08-19T14:15:00.777Z,100857.88
2022-08-19T14:17:27.389Z,100855.25
2022-08-19T14:19:58.624Z,100861.63
2022-08-19T14:22:30.080Z,100863.94
2022-08-19T14:24:57.998Z,100851.41
2022-08-19T14:27:26.267Z,100869.44
2022-08-19T14:29:53.725Z,100877.53
2022-08-19T14:32:20.573Z,100858.56
2022-08-19T14:34:47.778Z,100861.59
2022-08-19T14:37:15.717Z,100854.75
2022-08-19T14:39:43.136Z,100867.69
2022-08-19T14:42:11.472Z,100856.09
2022-08-19T14:44:39.157Z,100868.28
2022-08-19T14:47:08.059Z,100866.78
2022-08-19T14:49:43.058Z,100864.44
2022-08-19T14:52:12.841Z,100883.47
2022-08-19T14:54:53.146Z,100878.13
2022-08-19T14:57:21.639Z,100871.59
2022-08-19T14:59:50.976Z,100870.59
2022-08-19T15:02:34.494Z,100869.19
2022-08-19T15:05:01.987Z,100882.13
2022-08-19T15:07:30.476Z,100879.94
2022-08-19T15:09:57.811Z,100885.88
2022-08-19T15:12:25.204Z,100882.56
2022-08-19T15:14:56.002Z,100883.38
2022-08-19T15:17:41.476Z,100891.53
2022-08-19T15:20:12.225Z,100894.25
2022-08-19T15:22:39.274Z,100901.34
2022-08-19T15:25:08.272Z,100904.75
2022-08-19T15:27:35.660Z,100910.75
2022-08-19T15:30:02.825Z,100909.72
2022-08-19T15:32:30.447Z,100917.78
2022-08-19T15:34:57.248Z,100906.09
2022-08-19T15:37:24.465Z,100911.41
2022-08-19T15:39:51.519Z,100918.88
2022-08-19T15:42:22.564Z,100918.56
2022-08-19T15:45:00.735Z,100922.75
2022-08-19T15:47:35.163Z,100924.13
2022-08-19T15:50:29.064Z,100920.41
2022-08-19T15:52:58.578Z,100933.19
2022-08-19T15:55:34.535Z,100913.72
2022-08-19T15:58:28.793Z,100919.59
2022-08-19T16:01:27.255Z,100917.50
2022-08-19T16:04:15.710Z,100917.34
2022-08-19T16:06:46.647Z,100915.00
2022-08-19T16:09:15.399Z,100925.34
2022-08-19T16:11:46.466Z,100919.59
2022-08-19T16:14:18.682Z,100919.19
2022-08-19T16:16:47.347Z,100923.59
2022-08-19T16:19:16.250Z,100921.91
2022-08-19T16:21:45.537Z,100915.81
2022-08-19T16:24:14.281Z,100912.50
2022-08-19T16:26:42.431Z,100914.66
2022-08-19T16:29:12.095Z,100919.69
2022-08-19T16:31:41.961Z,100918.78
2022-08-19T16:34:08.645Z,100920.28
2022-08-19T16:36:35.390Z,100920.78
2022-08-19T16:39:03.751Z,100921.19
2022-08-19T16:41:30.390Z,100923.91
2022-08-19T16:43:57.193Z,100918.03
2022-08-19T16:46:24.639Z,100921.88
2022-08-19T16:48:54.257Z,100918.66
2022-08-19T16:51:22.873Z,100922.13
2022-08-19T16:53:53.144Z,100916.81
2022-08-19T16:56:28.530Z,100921.09
2022-08-19T16:58:56.083Z,100919.31
2022-08-19T17:01:22.842Z,100922.34
2022-08-19T17:03:52.727Z,100917.81
2022-08-19T17:06:24.601Z,100918.16
2022-08-19T17:08:55.445Z,100920.03
2022-08-19T17:11:24.380Z,100924.16
2022-08-19T17:13:51.247Z,100916.00
2022-08-19T17:16:20.059Z,100907.41
2022-08-19T17:18:46.820Z,100905.94
2022-08-19T17:21:13.631Z,100911.81
2022-08-19T17:23:44.175Z,100914.16
2022-08-19T17:26:17.957Z,100912.06
2022-08-19T17:28:46.377Z,100907.66
2022-08-19T17:31:13.172Z,100914.00
2022-08-19T17:33:41.358Z,100910.47
2022-08-19T17:36:11.914Z,100913.75
2022-08-19T17:38:47.569Z,100906.22
2022-08-19T17:41:15.686Z,100910.81
2022-08-19T17:43:43.753Z,100907.88
2022-08-19T17:46:18.247Z,100901.97
2022-08-19T17:48:51.893Z,100911.47
2022-08-19T17:51:35.827Z,100902.19
2022-08-19T17:54:09.077Z,100893.56
2022-08-19T17:56:43.316Z,100898.69
2022-08-19T17:59:13.926Z,100896.84
2022-08-19T18:01:53.558Z,100894.97
2022-08-19T18:04:23.051Z,100904.13
2022-08-19T18:06:53.119Z,100907.38
2022-08-19T18:09:41.203Z,100895.66
2022-08-19T18:12:09.751Z,100904.31
2022-08-19T18:14:39.395Z,100901.81
2022-08-19T18:17:09.777Z,100915.00
2022-08-19T18:19:41.525Z,100912.66
2022-08-19T18:22:22.716Z,100920.81
2022-08-19T18:24:50.821Z,100928.31
2022-08-19T18:27:17.537Z,100924.28
2022-08-19T18:29:45.044Z,100924.31
2022-08-19T18:32:15.100Z,100930.59
2022-08-19T18:34:43.017Z,100938.56
2022-08-19T18:37:10.445Z,100933.31
2022-08-19T18:39:55.944Z,100935.53
2022-08-19T18:42:41.588Z,100930.66
2022-08-19T18:45:28.350Z,100936.25
2022-08-19T18:48:27.131Z,100937.59
2022-08-19T18:50:56.642Z,100940.53
2022-08-19T18:53:23.497Z,100937.59
2022-08-19T18:55:52.022Z,100943.88
2022-08-19T18:58:19.645Z,100943.25
2022-08-19T19:00:48.723Z,100950.06
2022-08-19T19:03:15.633Z,100942.59
2022-08-19T19:05:44.433Z,100949.22
2022-08-19T19:08:13.675Z,100948.53
2022-08-19T19:10:42.355Z,100946.19
2022-08-19T19:13:09.149Z,100950.94
2022-08-19T19:15:37.128Z,100959.06
2022-08-19T19:18:03.984Z,100963.81
2022-08-19T19:20:36.402Z,100959.41
2022-08-19T19:23:04.208Z,100959.25
2022-08-19T19:25:44.799Z,100956.38
2022-08-19T19:28:24.086Z,100972.47
2022-08-19T19:30:53.306Z,100967.94
2022-08-19T19:33:20.582Z,100968.78
2022-08-19T19:35:49.329Z,100968.63
2022-08-19T19:38:19.307Z,100972.72
2022-08-19T19:44:30.713Z,100964.59
2022-08-19T19:47:09.717Z,100958.81
2022-08-19T19:53:08.726Z,100968.50
2022-08-19T19:56:21.594Z,100970.34
2022-08-19T20:02:06.600Z,100963.22
2022-08-19T20:04:40.501Z,100976.28
2022-08-19T20:07:18.885Z,100978.25
2022-08-19T20:13:39.897Z,100982.84
2022-08-19T20:16:43.510Z,100970.13
2022-08-19T20:19:15.252Z,100980.97
2022-08-19T20:22:08.964Z,100979.44
2022-08-19T20:24:45.001Z,100986.41
2022-08-19T20:27:31.102Z,100995.03
2022-08-19T20:30:25.626Z,100992.69
2022-08-19T20:32:58.341Z,100995.03
2022-08-19T20:35:54.018Z,100988.97
2022-08-19T20:38:23.190Z,100987.56
2022-08-19T20:44:11.739Z,100998.94
2022-08-19T20:46:55.378Z,100995.19
2022-08-19T20:49:35.861Z,100998.75
2022-08-19T20:52:14.712Z,100995.34
2022-08-19T20:54:47.525Z,101010.94
2022-08-19T20:57:45.038Z,101000.75
2022-08-19T21:00:42.919Z,101001.44
2022-08-19T21:06:33.795Z,101014.63
2022-08-19T21:09:16.387Z,100997.66
2022-08-19T21:11:45.961Z,101006.13
2022-08-19T21:14:28.335Z,101007.47
2022-08-19T21:17:05.323Z,101022.38
2022-08-19T21:20:01.809Z,101016.38
2022-08-19T21:22:40.189Z,101026.66
2022-08-19T21:25:15.981Z,101018.50
2022-08-19T21:28:47.102Z,101018.03
2022-08-19T21:34:21.849Z,101016.72
2022-08-19T21:36:51.711Z,101026.47
2022-08-19T21:39:26.564Z,101020.91
2022-08-19T21:42:04.466Z,101022.00
2022-08-19T21:45:36.174Z,101013.88
2022-08-19T21:48:15.957Z,101016.63
2022-08-19T21:50:43.621Z,101015.31
2022-08-19T21:53:17.541Z,101020.91
2022-08-19T21:55:44.573Z,101024.13
2022-08-19T21:58:11.895Z,101028.94
2022-08-19T22:00:39.804Z,101021.75
2022-08-19T22:03:06.600Z,101020.78
2022-08-19T22:05:33.997Z,101022.34
2022-08-19T22:08:02.023Z,101019.47
2022-08-19T22:10:31.384Z,101011.16
2022-08-19T22:12:58.200Z,101022.13
2022-08-19T22:15:29.280Z,101020.06
2022-08-19T22:17:59.594Z,101026.09
2022-08-19T22:20:28.710Z,101012.25
2022-08-19T22:23:01.951Z,101031.16
2022-08-19T22:25:32.270Z,101030.38
2022-08-19T22:28:01.772Z,101026.31
2022-08-19T22:30:32.408Z,101034.56
2022-08-19T22:33:02.325Z,101022.22
2022-08-19T22:35:31.646Z,101027.31
2022-08-19T22:37:59.235Z,101037.06
2022-08-19T22:40:28.359Z,101039.53
2022-08-19T22:43:03.566Z,101036.81
2022-08-19T22:45:30.616Z,101032.91
2022-08-19T22:47:57.891Z,101041.53
2022-08-19T22:50:24.689Z,101033.28
2022-08-19T22:53:02.728Z,101036.19
2022-08-19T22:55:32.428Z,101045.31
2022-08-19T22:58:01.608Z,101039.91
2022-08-19T23:00:29.054Z,101045.31
2022-08-19T23:02:57.465Z,101047.34
2022-08-19T23:05:27.089Z,101046.63
2022-08-19T23:07:54.622Z,101044.06
2022-08-19T23:10:27.080Z,101054.59
2022-08-19T23:12:56.514Z,101049.19
2022-08-19T23:15:26.017Z,101042.69
2022-08-19T23:17:54.682Z,101040.53
2022-08-19T23:20:23.381Z,101042.22
2022-08-19T23:22:51.006Z,101046.25
2022-08-19T23:25:20.421Z,101038.41
2022-08-19T23:28:06.619Z,101041.31
2022-08-19T23:30:35.569Z,101034.91
2022-08-19T23:33:11.018Z,101051.72
2022-08-19T23:35:40.799Z,101043.47
2022-08-19T23:38:08.620Z,101037.59
2022-08-19T23:40:37.081Z,101041.16
2022-08-19T23:43:07.924Z,101038.00
2022-08-19T23:45:38.343Z,101046.28
2022-08-19T23:48:06.618Z,101041.31
2022-08-19T23:50:34.385Z,101051.81
2022-08-19T23:53:02.214Z,101045.94
2022-08-19T23:55:32.682Z,101043.84
2022-08-19T23:57:59.908Z,101043.16
